Terminal Aerodrome Forecast
Issued by NWS Pittsburgh, PA

Current Version | Previous Version | Graphics & Text | Print | Product List | Glossary On
Versions: 1 2 3 4 5 6 7 8 9 10 11 12 13 14 15 16 17 18 19 20 21 22 23 24 25 26 27 28 29 30 31 32 33 34 35 36 37 38 39 40 41
000
FTUS41 KPBZ 251600 AAB
TAFPIT
TAF AMD
KPIT 251620Z 2516/2618 21012G22KT P6SM SCT025
     FM252200 26008KT P6SM SCT035
     FM261000 01004KT P6SM -SN OVC050
     FM261400 02005KT 2SM -SN BR OVC015=

USA.gov is the U.S. government's official web portal to all federal, state and local government web resources and services.